createdAt,value
2023-12-11T00:02:02.584Z,91.95
2023-12-11T00:04:29.360Z,90.70
2023-12-11T00:06:56.158Z,91.22
2023-12-11T00:09:22.830Z,90.51
2023-12-11T00:11:49.570Z,91.39
2023-12-11T00:14:16.290Z,90.26
2023-12-11T00:16:44.758Z,90.65
2023-12-11T00:19:12.402Z,90.09
2023-12-11T00:21:39.632Z,88.67
2023-12-11T00:24:07.641Z,89.78
2023-12-11T00:26:34.442Z,89.66
2023-12-11T00:29:01.182Z,89.50
2023-12-11T00:31:28.013Z,89.53
2023-12-11T00:33:54.984Z,89.69
2023-12-11T00:36:21.866Z,89.48
2023-12-11T00:38:49.102Z,90.65
2023-12-11T00:41:18.912Z,90.17
2023-12-11T00:43:46.805Z,90.46
2023-12-11T00:46:25.367Z,92.03
2023-12-11T00:48:52.334Z,91.94
2023-12-11T00:51:22.484Z,92.41
2023-12-11T00:53:49.586Z,92.14
2023-12-11T00:56:16.676Z,91.51
2023-12-11T00:58:44.500Z,91.18
2023-12-11T01:01:11.572Z,90.70
2023-12-11T01:03:39.364Z,89.57
2023-12-11T01:06:06.599Z,89.85
2023-12-11T01:08:36.586Z,89.64
2023-12-11T01:11:03.662Z,88.54
2023-12-11T01:13:30.321Z,86.67
2023-12-11T01:15:57.347Z,86.82
2023-12-11T01:18:25.238Z,85.80
2023-12-11T01:20:52.280Z,85.72
2023-12-11T01:23:19.528Z,84.83
2023-12-11T01:25:46.251Z,84.78
2023-12-11T01:28:13.144Z,84.28
2023-12-11T01:30:39.832Z,84.19
2023-12-11T01:33:06.583Z,83.53
2023-12-11T01:35:37.400Z,84.48
2023-12-11T01:38:04.890Z,84.89
2023-12-11T01:40:31.588Z,84.13
2023-12-11T01:43:19.299Z,83.86
2023-12-11T01:46:14.798Z,83.46
2023-12-11T01:48:42.115Z,83.16
2023-12-11T01:51:10.788Z,83.01
2023-12-11T01:53:37.820Z,83.13
2023-12-11T01:56:04.822Z,82.34
2023-12-11T01:58:31.753Z,81.36
2023-12-11T02:00:59.311Z,81.74
2023-12-11T02:03:26.063Z,82.62
2023-12-11T02:05:53.008Z,82.93
2023-12-11T02:08:19.880Z,83.45
2023-12-11T02:10:46.791Z,82.99
2023-12-11T02:13:14.638Z,84.24
2023-12-11T02:15:43.967Z,84.12
2023-12-11T02:18:12.260Z,83.55
2023-12-11T02:20:40.046Z,83.41
2023-12-11T02:23:32.825Z,82.23
2023-12-11T02:26:26.314Z,81.96
2023-12-11T02:28:53.009Z,82.30
2023-12-11T02:31:19.829Z,80.26
2023-12-11T02:33:46.652Z,80.74
2023-12-11T02:36:13.586Z,80.16
2023-12-11T02:38:40.303Z,80.34
2023-12-11T02:41:07.042Z,80.44
2023-12-11T02:43:34.908Z,79.83
2023-12-11T02:46:01.648Z,80.44
2023-12-11T02:48:28.489Z,79.74
2023-12-11T02:50:55.275Z,79.67
2023-12-11T02:53:22.008Z,80.38
2023-12-11T02:55:48.698Z,80.28
2023-12-11T02:58:15.577Z,79.89
2023-12-11T03:00:42.572Z,79.93
2023-12-11T03:03:10.205Z,80.08
2023-12-11T03:05:37.178Z,80.35
2023-12-11T03:08:05.593Z,79.46
2023-12-11T03:10:33.428Z,80.43
2023-12-11T03:13:00.385Z,80.48
2023-12-11T03:15:27.228Z,80.88
2023-12-11T03:17:53.890Z,80.41
2023-12-11T03:20:20.591Z,80.75
2023-12-11T03:22:47.315Z,81.05
2023-12-11T03:25:14.142Z,81.11
2023-12-11T03:27:41.028Z,80.64
2023-12-11T03:30:08.275Z,79.98
2023-12-11T03:32:35.119Z,80.16
2023-12-11T03:35:01.821Z,81.18
2023-12-11T03:37:28.882Z,81.57
2023-12-11T03:39:55.769Z,81.01
2023-12-11T03:42:22.705Z,81.44
2023-12-11T03:44:49.377Z,80.54
2023-12-11T03:47:16.403Z,80.97
2023-12-11T03:49:43.157Z,80.88
2023-12-11T03:52:09.985Z,81.98
2023-12-11T03:54:37.117Z,82.06
2023-12-11T03:57:04.465Z,81.55
2023-12-11T03:59:31.710Z,80.99
2023-12-11T04:01:58.490Z,81.10
2023-12-11T04:04:25.428Z,80.89
2023-12-11T04:06:52.281Z,81.22
2023-12-11T04:09:19.045Z,80.57
2023-12-11T04:11:46.025Z,81.02
2023-12-11T04:14:13.175Z,81.09
2023-12-11T04:16:43.279Z,80.57
2023-12-11T04:19:12.388Z,80.53
2023-12-11T04:21:39.375Z,80.34
2023-12-11T04:24:06.557Z,80.63
2023-12-11T04:26:33.229Z,80.48
2023-12-11T04:28:59.975Z,80.53
2023-12-11T04:31:26.658Z,80.55
2023-12-11T04:33:53.715Z,79.50
2023-12-11T04:36:20.743Z,79.85
2023-12-11T04:38:47.582Z,79.67
2023-12-11T04:41:14.272Z,79.70
2023-12-11T04:43:41.004Z,79.79
2023-12-11T04:46:07.747Z,80.02
2023-12-11T04:48:34.677Z,80.11
2023-12-11T04:51:01.539Z,79.81
2023-12-11T04:53:28.281Z,79.72
2023-12-11T04:55:55.125Z,79.39
2023-12-11T04:58:22.266Z,78.93
2023-12-11T05:00:49.133Z,78.53
2023-12-11T05:03:16.044Z,78.68
2023-12-11T05:05:42.799Z,78.07
2023-12-11T05:08:09.463Z,78.46
2023-12-11T05:10:36.093Z,77.92
2023-12-11T05:13:02.974Z,77.00
2023-12-11T05:15:29.757Z,77.07
2023-12-11T05:17:56.524Z,76.69
2023-12-11T05:20:23.359Z,77.05
2023-12-11T05:22:50.046Z,77.00
2023-12-11T05:25:16.831Z,76.42
2023-12-11T05:27:43.725Z,76.81
2023-12-11T05:30:10.717Z,77.44
2023-12-11T05:32:38.300Z,77.18
2023-12-11T05:35:05.574Z,77.43
2023-12-11T05:37:32.698Z,77.44
2023-12-11T05:40:20.711Z,77.67
2023-12-11T05:42:46.228Z,77.53
2023-12-11T05:45:12.984Z,77.34
2023-12-11T05:47:39.764Z,77.57
2023-12-11T05:50:07.060Z,78.37
2023-12-11T05:52:33.799Z,78.25
2023-12-11T05:55:00.528Z,77.73
2023-12-11T05:57:27.439Z,78.04
2023-12-11T05:59:54.230Z,78.31
2023-12-11T06:02:21.026Z,78.67
2023-12-11T06:04:47.883Z,78.50
2023-12-11T06:07:14.714Z,78.93
2023-12-11T06:09:41.588Z,78.89
2023-12-11T06:12:12.829Z,78.89
2023-12-11T06:14:40.589Z,78.79
2023-12-11T06:17:07.565Z,79.54
2023-12-11T06:19:34.325Z,79.99
2023-12-11T06:22:01.138Z,78.92
2023-12-11T06:24:27.880Z,79.70
2023-12-11T06:26:54.865Z,79.36
2023-12-11T06:29:21.648Z,79.41
2023-12-11T06:31:48.412Z,79.61
2023-12-11T06:34:15.107Z,79.86
2023-12-11T06:36:41.939Z,79.79
2023-12-11T06:39:08.645Z,79.80
2023-12-11T06:41:38.488Z,79.08
2023-12-11T06:44:05.811Z,79.04
2023-12-11T06:46:32.512Z,78.91
2023-12-11T06:48:59.818Z,79.55
2023-12-11T06:51:27.133Z,80.22
2023-12-11T06:53:59.580Z,79.44
2023-12-11T06:56:28.389Z,79.03
2023-12-11T06:58:55.106Z,79.54
2023-12-11T07:01:22.042Z,78.77
2023-12-11T07:03:51.800Z,78.70
2023-12-11T07:06:18.756Z,78.43
2023-12-11T07:08:45.733Z,77.20
2023-12-11T07:11:12.690Z,77.32
2023-12-11T07:13:42.912Z,76.76
2023-12-11T07:16:10.220Z,76.62
2023-12-11T07:18:38.289Z,75.74
2023-12-11T07:21:12.825Z,74.60
2023-12-11T07:23:39.889Z,75.07
2023-12-11T07:26:09.951Z,74.41
2023-12-11T07:28:37.873Z,74.98
2023-12-11T07:31:06.896Z,73.98
2023-12-11T07:33:34.911Z,74.71
2023-12-11T07:36:03.155Z,74.13
2023-12-11T07:38:30.048Z,73.49
2023-12-11T07:40:57.668Z,73.83
2023-12-11T07:43:25.494Z,73.39
2023-12-11T07:45:53.244Z,73.07
2023-12-11T07:48:20.516Z,73.57
2023-12-11T07:50:47.381Z,73.99
2023-12-11T07:53:14.401Z,73.45
2023-12-11T07:55:41.362Z,74.13
2023-12-11T07:58:08.182Z,73.68
2023-12-11T08:00:34.971Z,73.44
2023-12-11T08:03:01.960Z,72.38
2023-12-11T08:05:28.841Z,72.63
2023-12-11T08:07:55.694Z,72.46
2023-12-11T08:10:22.581Z,72.16
2023-12-11T08:12:55.354Z,73.42
2023-12-11T08:15:22.326Z,73.15
2023-12-11T08:17:49.119Z,70.85
2023-12-11T08:20:18.665Z,68.01
2023-12-11T08:22:47.533Z,68.56
2023-12-11T08:25:15.343Z,67.21
2023-12-11T08:27:43.664Z,64.81
2023-12-11T08:30:14.447Z,61.52
2023-12-11T08:32:41.525Z,59.61
2023-12-11T08:35:09.803Z,58.70
2023-12-11T08:37:38.449Z,61.46
2023-12-11T08:40:07.011Z,60.79
2023-12-11T08:42:40.937Z,62.28
2023-12-11T08:45:10.213Z,62.68
2023-12-11T08:47:39.625Z,62.90
2023-12-11T08:50:11.602Z,60.85
2023-12-11T08:52:39.276Z,58.18
2023-12-11T08:55:09.307Z,54.98
2023-12-11T08:57:38.029Z,53.68
2023-12-11T09:00:06.864Z,53.46
2023-12-11T09:02:33.770Z,51.62
2023-12-11T09:05:00.665Z,51.54
2023-12-11T09:07:27.395Z,52.42
2023-12-11T09:10:10.625Z,51.01
2023-12-11T09:12:39.429Z,51.28
2023-12-11T09:15:06.934Z,49.62
2023-12-11T09:17:34.252Z,51.39
2023-12-11T09:20:05.462Z,53.34
2023-12-11T09:22:32.388Z,52.77
2023-12-11T09:24:59.147Z,51.61
2023-12-11T09:27:25.966Z,51.01
2023-12-11T09:29:52.826Z,51.39
2023-12-11T09:32:23.729Z,51.95
2023-12-11T09:34:50.753Z,52.29
2023-12-11T09:37:20.187Z,51.87
2023-12-11T09:39:50.317Z,53.58
2023-12-11T09:42:18.831Z,55.54
2023-12-11T09:44:47.841Z,56.55
2023-12-11T09:47:24.795Z,56.49
2023-12-11T09:49:52.593Z,57.83
2023-12-11T09:52:22.062Z,56.20
2023-12-11T09:54:52.219Z,56.38
2023-12-11T09:57:22.821Z,55.78
2023-12-11T09:59:51.884Z,55.87
2023-12-11T10:02:26.777Z,56.21
2023-12-11T10:05:10.706Z,55.54
2023-12-11T10:07:49.314Z,55.19
2023-12-11T10:10:24.497Z,54.92
2023-12-11T10:12:55.382Z,55.95
2023-12-11T10:15:30.092Z,56.58
2023-12-11T10:18:14.962Z,57.03
2023-12-11T10:20:43.391Z,56.79
2023-12-11T10:23:19.078Z,57.33
2023-12-11T10:25:51.711Z,57.43
2023-12-11T10:28:22.732Z,55.92
2023-12-11T10:30:55.329Z,56.42
2023-12-11T10:33:28.747Z,57.00
2023-12-11T10:36:14.089Z,56.87
2023-12-11T10:38:41.473Z,57.14
2023-12-11T10:41:27.412Z,57.96
2023-12-11T10:44:08.676Z,57.02
2023-12-11T10:46:43.964Z,57.39
2023-12-11T10:49:10.999Z,58.23
2023-12-11T10:51:38.109Z,58.55
2023-12-11T10:54:05.218Z,59.54
2023-12-11T10:56:32.634Z,58.99
2023-12-11T10:59:00.115Z,59.39
2023-12-11T11:01:27.856Z,60.02
2023-12-11T11:03:55.058Z,58.82
2023-12-11T11:06:23.537Z,59.48
2023-12-11T11:09:01.272Z,60.09
2023-12-11T11:11:33.876Z,59.77
2023-12-11T11:14:18.710Z,59.99
2023-12-11T11:16:51.538Z,59.70
2023-12-11T11:19:18.376Z,60.02
2023-12-11T11:22:08.074Z,60.05
2023-12-11T11:24:38.930Z,59.51
2023-12-11T11:27:44.443Z,59.43
2023-12-11T11:30:11.732Z,60.83
2023-12-11T11:32:57.897Z,59.77
2023-12-11T11:36:03.376Z,59.69
2023-12-11T11:38:54.963Z,60.28
2023-12-11T11:41:23.349Z,60.00
2023-12-11T11:44:16.222Z,60.07
2023-12-11T11:47:01.337Z,60.54
2023-12-11T11:49:38.152Z,61.20
2023-12-11T11:52:07.480Z,60.72
2023-12-11T11:54:37.973Z,60.71
2023-12-11T11:57:05.150Z,61.87
2023-12-11T11:59:32.975Z,61.73
2023-12-11T12:01:59.880Z,62.36
2023-12-11T12:04:30.833Z,62.50
2023-12-11T12:07:01.733Z,62.78
2023-12-11T12:09:28.966Z,63.46
2023-12-11T12:11:55.695Z,63.28
2023-12-11T12:14:23.379Z,63.89
2023-12-11T12:16:50.384Z,64.96
2023-12-11T12:19:17.481Z,65.08
2023-12-11T12:21:56.098Z,65.31
2023-12-11T12:24:23.336Z,65.95
2023-12-11T12:26:54.415Z,66.40
2023-12-11T12:29:21.335Z,67.61
2023-12-11T12:31:48.428Z,67.90
2023-12-11T12:34:18.458Z,68.27
2023-12-11T12:36:46.405Z,68.37
2023-12-11T12:39:19.257Z,68.62
2023-12-11T12:41:50.336Z,69.70
2023-12-11T12:44:21.585Z,68.85
2023-12-11T12:46:48.307Z,68.80
2023-12-11T12:49:16.610Z,68.91
2023-12-11T12:51:53.529Z,69.02
2023-12-11T12:54:22.778Z,69.27
2023-12-11T12:56:59.820Z,69.37
2023-12-11T12:59:27.191Z,69.59
2023-12-11T13:01:54.093Z,69.92
2023-12-11T13:04:24.337Z,70.00
2023-12-11T13:06:51.333Z,69.63
2023-12-11T13:09:32.793Z,69.60
2023-12-11T13:11:59.549Z,69.86
2023-12-11T13:14:29.348Z,70.26
2023-12-11T13:16:56.932Z,70.70
2023-12-11T13:19:25.414Z,70.90
2023-12-11T13:21:55.690Z,70.83
2023-12-11T13:24:22.800Z,71.37
2023-12-11T13:26:49.722Z,70.95
2023-12-11T13:29:16.345Z,71.70
2023-12-11T13:31:43.419Z,72.53
2023-12-11T13:34:10.288Z,73.58
2023-12-11T13:36:37.018Z,75.05
2023-12-11T13:39:06.672Z,73.32
2023-12-11T13:41:36.827Z,73.96
2023-12-11T13:44:04.538Z,73.88
2023-12-11T13:46:31.770Z,73.65
2023-12-11T13:48:58.763Z,73.39
2023-12-11T13:51:25.824Z,73.48
2023-12-11T13:54:02.876Z,73.73
2023-12-11T13:56:29.756Z,74.26
2023-12-11T13:58:56.474Z,74.12
2023-12-11T14:01:24.468Z,75.30
2023-12-11T14:03:51.614Z,75.53
2023-12-11T14:06:18.513Z,74.94
2023-12-11T14:08:45.531Z,75.51
2023-12-11T14:11:12.188Z,76.14
2023-12-11T14:13:38.951Z,75.72
2023-12-11T14:16:06.287Z,75.88
2023-12-11T14:18:35.365Z,76.73
2023-12-11T14:21:03.069Z,76.75
2023-12-11T14:23:30.019Z,77.28
2023-12-11T14:25:56.684Z,77.15
2023-12-11T14:28:23.352Z,77.76
2023-12-11T14:30:51.552Z,77.23
2023-12-11T14:33:18.624Z,77.26
2023-12-11T14:35:48.762Z,77.21
2023-12-11T14:38:17.560Z,77.11
2023-12-11T14:40:44.281Z,76.95
2023-12-11T14:43:11.247Z,77.30
2023-12-11T14:45:38.098Z,78.00
2023-12-11T14:48:05.911Z,77.36
2023-12-11T14:50:32.768Z,78.32
2023-12-11T14:52:59.556Z,77.18
2023-12-11T14:55:26.727Z,78.15
2023-12-11T14:57:53.861Z,77.70
2023-12-11T15:00:20.840Z,77.71
2023-12-11T15:02:47.732Z,77.63
2023-12-11T15:05:14.638Z,77.53
2023-12-11T15:07:41.320Z,77.83
2023-12-11T15:10:08.668Z,77.99
2023-12-11T15:12:39.278Z,78.12
2023-12-11T15:15:07.816Z,78.20
2023-12-11T15:17:34.978Z,78.12
2023-12-11T15:20:11.875Z,78.02
2023-12-11T15:22:38.989Z,77.67
2023-12-11T15:25:09.298Z,77.02
2023-12-11T15:27:36.440Z,77.25
2023-12-11T15:30:04.991Z,77.07
2023-12-11T15:32:31.634Z,76.52
2023-12-11T15:34:58.442Z,76.68
2023-12-11T15:37:25.177Z,76.76
2023-12-11T15:39:51.944Z,76.54
2023-12-11T15:42:20.737Z,76.21
2023-12-11T15:44:48.273Z,76.74
2023-12-11T15:47:14.920Z,76.91
2023-12-11T15:49:41.717Z,77.45
2023-12-11T15:52:09.657Z,77.45
2023-12-11T15:54:37.283Z,78.21
2023-12-11T15:57:04.122Z,78.52
2023-12-11T15:59:30.795Z,77.92
2023-12-11T16:01:57.571Z,77.61
2023-12-11T16:04:24.447Z,78.28
2023-12-11T16:06:51.184Z,77.83
2023-12-11T16:09:19.010Z,77.77
2023-12-11T16:11:46.201Z,77.19
2023-12-11T16:14:13.054Z,77.12
2023-12-11T16:16:41.343Z,76.75
2023-12-11T16:19:08.968Z,76.87
2023-12-11T16:21:39.281Z,75.86
2023-12-11T16:24:06.774Z,74.54
2023-12-11T16:26:33.554Z,75.10
2023-12-11T16:29:00.239Z,75.49
2023-12-11T16:31:27.034Z,75.83
2023-12-11T16:33:54.130Z,76.09
2023-12-11T16:36:20.906Z,74.98
2023-12-11T16:38:47.602Z,75.31
2023-12-11T16:41:24.804Z,75.68
2023-12-11T16:43:52.105Z,74.92
2023-12-11T16:46:19.454Z,75.17
2023-12-11T16:48:46.269Z,74.89
2023-12-11T16:51:13.536Z,75.11
2023-12-11T16:53:41.601Z,75.48
2023-12-11T16:56:09.113Z,75.67
2023-12-11T16:58:38.537Z,75.81
2023-12-11T17:01:05.879Z,76.02
2023-12-11T17:03:32.744Z,76.67
2023-12-11T17:05:59.691Z,76.18
2023-12-11T17:08:26.858Z,75.71
2023-12-11T17:10:53.542Z,75.30
2023-12-11T17:13:20.417Z,74.37
2023-12-11T17:15:48.672Z,74.54
2023-12-11T17:18:15.585Z,75.21
2023-12-11T17:20:42.496Z,76.14
2023-12-11T17:23:09.179Z,75.71
2023-12-11T17:25:35.942Z,75.90
2023-12-11T17:28:05.772Z,75.43
2023-12-11T17:30:32.717Z,75.28
2023-12-11T17:32:59.725Z,76.12
2023-12-11T17:35:26.521Z,77.45
2023-12-11T17:37:53.288Z,78.13
2023-12-11T17:40:20.036Z,78.60
2023-12-11T17:42:46.929Z,78.15
2023-12-11T17:45:13.994Z,77.42
2023-12-11T17:47:40.796Z,76.58
2023-12-11T17:50:14.007Z,75.94
2023-12-11T17:52:40.806Z,75.76
2023-12-11T17:55:07.773Z,74.86
2023-12-11T17:57:34.794Z,74.91
2023-12-11T18:00:01.651Z,73.85
2023-12-11T18:02:32.409Z,73.63
2023-12-11T18:04:59.205Z,73.12
2023-12-11T18:07:26.969Z,73.85
2023-12-11T18:09:54.158Z,73.40
2023-12-11T18:12:28.472Z,73.38
2023-12-11T18:14:55.139Z,73.17
2023-12-11T18:17:21.739Z,72.87
2023-12-11T18:19:48.676Z,73.17
2023-12-11T18:22:16.598Z,73.55
2023-12-11T18:24:43.416Z,72.60
2023-12-11T18:27:10.185Z,73.25
2023-12-11T18:29:38.283Z,73.46
2023-12-11T18:32:05.345Z,74.04
2023-12-11T18:34:39.476Z,74.20
2023-12-11T18:37:14.509Z,74.30
2023-12-11T18:39:42.107Z,74.56
2023-12-11T18:42:08.733Z,74.32
2023-12-11T18:44:35.976Z,74.06
2023-12-11T18:47:02.680Z,73.72
2023-12-11T18:49:29.705Z,74.12
2023-12-11T18:51:56.573Z,73.91
2023-12-11T18:54:23.391Z,74.04
2023-12-11T18:56:51.398Z,74.23
2023-12-11T18:59:18.433Z,72.89
2023-12-11T19:01:45.332Z,72.52
2023-12-11T19:04:12.570Z,71.91
2023-12-11T19:06:39.576Z,71.51
2023-12-11T19:09:08.625Z,70.97
2023-12-11T19:11:36.150Z,70.96
2023-12-11T19:14:02.883Z,71.38
2023-12-11T19:16:29.564Z,71.11
2023-12-11T19:18:56.393Z,70.61
2023-12-11T19:21:23.556Z,71.00
2023-12-11T19:23:52.421Z,70.75
2023-12-11T19:26:19.875Z,70.75
2023-12-11T19:28:46.699Z,70.88
2023-12-11T19:31:13.732Z,70.79
2023-12-11T19:33:40.744Z,71.20
2023-12-11T19:36:07.838Z,70.71
2023-12-11T19:38:34.569Z,70.63
2023-12-11T19:41:01.390Z,71.22
2023-12-11T19:43:28.051Z,71.59
2023-12-11T19:45:55.029Z,71.73
2023-12-11T19:48:21.775Z,71.75
2023-12-11T19:50:48.912Z,72.18
2023-12-11T19:53:18.389Z,72.92
2023-12-11T19:55:45.669Z,73.11
2023-12-11T19:58:12.411Z,74.03
2023-12-11T20:00:40.381Z,74.17
2023-12-11T20:03:07.162Z,74.80
2023-12-11T20:05:34.123Z,75.36
2023-12-11T20:08:00.854Z,75.50
2023-12-11T20:10:27.713Z,75.54
2023-12-11T20:12:54.606Z,75.40
2023-12-11T20:15:21.410Z,76.17
2023-12-11T20:17:48.127Z,76.00
2023-12-11T20:20:14.897Z,75.98
2023-12-11T20:22:41.569Z,76.59
2023-12-11T20:25:11.702Z,76.67
2023-12-11T20:27:38.454Z,77.41
2023-12-11T20:30:06.133Z,77.58
2023-12-11T20:32:35.305Z,77.21
2023-12-11T20:35:03.132Z,77.34
2023-12-11T20:37:30.218Z,77.68
2023-12-11T20:39:57.198Z,77.39
2023-12-11T20:42:23.962Z,76.96
2023-12-11T20:44:53.610Z,76.81
2023-12-11T20:47:20.292Z,77.30
2023-12-11T20:49:47.667Z,77.12
2023-12-11T20:52:14.417Z,76.63
2023-12-11T20:54:44.631Z,76.48
2023-12-11T20:57:11.451Z,75.38
2023-12-11T20:59:38.057Z,75.72
2023-12-11T21:02:05.101Z,74.59
2023-12-11T21:04:32.347Z,74.26
2023-12-11T21:06:59.380Z,73.95
2023-12-11T21:09:26.137Z,74.25
2023-12-11T21:11:52.845Z,74.18
2023-12-11T21:14:20.328Z,74.47
2023-12-11T21:16:46.945Z,74.37
2023-12-11T21:19:15.089Z,74.55
2023-12-11T21:21:41.821Z,73.88
2023-12-11T21:24:09.963Z,74.05
2023-12-11T21:26:36.859Z,74.69
2023-12-11T21:29:03.611Z,74.56
2023-12-11T21:31:31.146Z,74.42
2023-12-11T21:33:58.901Z,74.68
2023-12-11T21:36:34.633Z,74.44
2023-12-11T21:39:01.621Z,74.20
2023-12-11T21:41:28.477Z,74.05
2023-12-11T21:43:57.604Z,73.48
2023-12-11T21:46:26.999Z,74.03
2023-12-11T21:48:58.014Z,74.16
2023-12-11T21:51:27.025Z,74.25
2023-12-11T21:53:53.957Z,74.72
2023-12-11T21:56:24.440Z,74.73
2023-12-11T21:58:53.126Z,75.63
2023-12-11T22:01:20.004Z,75.77
2023-12-11T22:03:46.918Z,75.69
2023-12-11T22:06:14.773Z,76.46
2023-12-11T22:08:41.719Z,76.48
2023-12-11T22:11:13.774Z,76.58
2023-12-11T22:13:40.617Z,76.90
2023-12-11T22:16:07.781Z,76.68
2023-12-11T22:18:34.753Z,76.49
2023-12-11T22:21:01.654Z,76.49
2023-12-11T22:23:28.330Z,76.98
2023-12-11T22:26:08.265Z,77.35
2023-12-11T22:28:35.576Z,77.23
2023-12-11T22:31:02.281Z,77.09
2023-12-11T22:33:29.009Z,77.34
2023-12-11T22:35:55.866Z,77.23
2023-12-11T22:38:23.003Z,77.05
2023-12-11T22:40:50.106Z,77.13
2023-12-11T22:43:16.981Z,77.06
2023-12-11T22:45:43.613Z,76.82
2023-12-11T22:48:10.518Z,76.28
2023-12-11T22:50:38.452Z,76.55
2023-12-11T22:53:05.316Z,76.55
2023-12-11T22:55:32.246Z,76.26
2023-12-11T22:58:06.320Z,76.18
2023-12-11T23:00:41.180Z,75.63
2023-12-11T23:03:08.402Z,76.07
2023-12-11T23:05:35.695Z,75.79
2023-12-11T23:08:02.784Z,75.53
2023-12-11T23:10:29.505Z,75.55
2023-12-11T23:12:56.262Z,75.28
2023-12-11T23:15:23.248Z,75.28
2023-12-11T23:17:50.096Z,75.31
2023-12-11T23:20:16.825Z,75.04
2023-12-11T23:22:43.523Z,75.06
2023-12-11T23:25:10.549Z,74.97
2023-12-11T23:27:43.823Z,75.55
2023-12-11T23:30:10.784Z,75.42
2023-12-11T23:32:37.635Z,75.83
2023-12-11T23:35:04.793Z,76.13
2023-12-11T23:37:32.406Z,76.64
2023-12-11T23:39:59.501Z,77.33
2023-12-11T23:42:26.367Z,77.57
2023-12-11T23:44:54.685Z,78.30
2023-12-11T23:47:21.305Z,77.71
2023-12-11T23:49:48.142Z,78.30
2023-12-11T23:52:15.027Z,79.09
2023-12-11T23:54:41.685Z,79.04
2023-12-11T23:57:09.198Z,79.34
2023-12-11T23:59:36.304Z,79.67
